createdAt,value
2019-01-28T00:01:14.329Z,94959.66
2019-01-28T00:03:43.980Z,94967.12
2019-01-28T00:06:13.417Z,94965.02
2019-01-28T00:08:42.846Z,94963.72
2019-01-28T00:11:12.287Z,94971.77
2019-01-28T00:13:41.684Z,94988.78
2019-01-28T00:16:11.314Z,94992.19
2019-01-28T00:18:40.701Z,94994.64
2019-01-28T00:21:10.108Z,95002.42
2019-01-28T00:23:39.529Z,95012.33
2019-01-28T00:26:09.077Z,95021.59
2019-01-28T00:28:38.514Z,95034.80
2019-01-28T00:31:07.950Z,95038.05
2019-01-28T00:33:37.319Z,95049.30
2019-01-28T00:36:06.742Z,95047.00
2019-01-28T00:38:36.101Z,95054.19
2019-01-28T00:41:05.714Z,95065.53
2019-01-28T00:43:35.126Z,95078.23
2019-01-28T00:46:04.736Z,95079.38
2019-01-28T00:48:34.050Z,95094.44
2019-01-28T00:51:03.552Z,95105.81
2019-01-28T00:53:32.946Z,95105.55
2019-01-28T00:56:02.293Z,95114.53
2019-01-28T00:58:32.704Z,95130.46
2019-01-28T01:01:02.370Z,95123.52
2019-01-28T01:03:31.871Z,95117.77
2019-01-28T01:06:01.399Z,95128.31
2019-01-28T01:08:30.760Z,95130.66
2019-01-28T01:11:00.227Z,95136.59
2019-01-28T01:13:29.584Z,95134.57
2019-01-28T01:15:59.044Z,95143.89
2019-01-28T01:18:28.394Z,95150.97
2019-01-28T01:20:57.831Z,95160.11
2019-01-28T01:23:27.431Z,95174.38
2019-01-28T01:25:56.801Z,95180.88
2019-01-28T01:28:26.153Z,95184.20
2019-01-28T01:30:55.534Z,95183.50
2019-01-28T01:33:24.966Z,95189.84
2019-01-28T01:35:54.410Z,95210.29
2019-01-28T01:38:23.853Z,95214.09
2019-01-28T01:40:53.216Z,95223.73
2019-01-28T01:43:22.627Z,95225.11
2019-01-28T01:45:52.010Z,95230.52
2019-01-28T01:48:21.449Z,95227.57
2019-01-28T01:50:50.878Z,95230.27
2019-01-28T01:53:20.232Z,95236.98
2019-01-28T01:55:49.645Z,95239.02
2019-01-28T01:58:18.983Z,95233.59
2019-01-28T02:00:48.401Z,95237.52
2019-01-28T02:03:17.764Z,95254.33
2019-01-28T02:05:47.204Z,95246.03
2019-01-28T02:08:16.561Z,95257.00
2019-01-28T02:10:45.997Z,95244.02
2019-01-28T02:13:15.362Z,95251.58
2019-01-28T02:15:44.759Z,95245.14
2019-01-28T02:18:14.108Z,95246.08
2019-01-28T02:20:43.472Z,95244.14
2019-01-28T02:23:12.848Z,95248.19
2019-01-28T02:25:42.270Z,95242.40
2019-01-28T02:28:11.646Z,95240.71
2019-01-28T02:30:41.007Z,95234.13
2019-01-28T02:33:10.375Z,95252.76
2019-01-28T02:35:39.730Z,95246.61
2019-01-28T02:38:21.354Z,95244.03
2019-01-28T02:40:50.827Z,95244.17
2019-01-28T02:43:20.191Z,95246.12
2019-01-28T02:45:49.611Z,95253.86
2019-01-28T02:48:18.975Z,95259.28
2019-01-28T02:50:48.340Z,95261.20
2019-01-28T02:53:17.751Z,95254.07
2019-01-28T02:55:47.123Z,95256.00
2019-01-28T02:58:16.454Z,95258.26
2019-01-28T03:00:45.829Z,95259.02
2019-01-28T03:03:15.213Z,95259.69
2019-01-28T03:05:44.677Z,95250.70
2019-01-28T03:08:13.965Z,95260.16
2019-01-28T03:10:43.418Z,95266.50
2019-01-28T03:13:12.782Z,95265.29
2019-01-28T03:15:42.212Z,95264.18
2019-01-28T03:18:11.923Z,95258.98
2019-01-28T03:20:41.362Z,95265.50
2019-01-28T03:23:11.525Z,95262.67
2019-01-28T03:25:40.929Z,95259.99
2019-01-28T03:28:10.297Z,95254.67
2019-01-28T03:30:39.675Z,95261.81
2019-01-28T03:33:09.057Z,95260.56
2019-01-28T03:35:38.478Z,95256.73
2019-01-28T03:38:07.960Z,95266.11
2019-01-28T03:40:37.400Z,95258.63
2019-01-28T03:43:06.914Z,95255.64
2019-01-28T03:45:36.277Z,95258.17
2019-01-28T03:48:05.767Z,95262.88
2019-01-28T03:50:35.129Z,95264.70
2019-01-28T03:53:04.635Z,95254.20
2019-01-28T03:55:34.040Z,95259.70
2019-01-28T03:58:03.574Z,95263.66
2019-01-28T04:00:33.263Z,95257.09
2019-01-28T04:03:02.697Z,95258.32
2019-01-28T04:05:32.131Z,95266.44
2019-01-28T04:08:01.486Z,95265.06
2019-01-28T04:10:30.952Z,95261.81
2019-01-28T04:13:00.365Z,95267.87
2019-01-28T04:15:29.878Z,95260.59
2019-01-28T04:17:59.235Z,95249.00
2019-01-28T04:20:28.667Z,95256.59
2019-01-28T04:22:58.060Z,95255.23
2019-01-28T04:25:27.403Z,95245.17
2019-01-28T04:27:56.854Z,95249.90
2019-01-28T04:30:26.617Z,95255.94
2019-01-28T04:32:56.040Z,95254.89
2019-01-28T04:35:25.476Z,95259.77
2019-01-28T04:37:54.815Z,95256.96
2019-01-28T04:40:24.295Z,95260.79
2019-01-28T04:42:53.715Z,95257.41
2019-01-28T04:45:23.201Z,95259.83
2019-01-28T04:47:52.654Z,95270.08
2019-01-28T04:50:22.124Z,95258.08
2019-01-28T04:52:51.651Z,95260.66
2019-01-28T04:55:21.381Z,95258.50
2019-01-28T04:57:50.745Z,95268.04
2019-01-28T05:00:22.123Z,95261.73
2019-01-28T05:02:51.543Z,95268.05
2019-01-28T05:05:21.151Z,95265.01
2019-01-28T05:07:50.590Z,95261.31
2019-01-28T05:10:20.095Z,95254.20
2019-01-28T05:12:49.546Z,95265.11
2019-01-28T05:15:18.994Z,95266.06
2019-01-28T05:17:48.493Z,95265.14
2019-01-28T05:20:19.091Z,95266.80
2019-01-28T05:22:48.546Z,95266.72
2019-01-28T05:25:17.981Z,95275.56
2019-01-28T05:27:47.613Z,95267.19
2019-01-28T05:30:18.994Z,95268.48
2019-01-28T05:32:48.461Z,95272.90
2019-01-28T05:35:18.527Z,95272.20
2019-01-28T05:37:47.981Z,95265.63
2019-01-28T05:40:19.230Z,95267.97
2019-01-28T05:42:48.609Z,95262.50
2019-01-28T05:45:18.311Z,95267.07
2019-01-28T05:47:47.838Z,95267.92
2019-01-28T05:50:17.315Z,95270.35
2019-01-28T05:52:48.051Z,95268.41
2019-01-28T05:55:17.724Z,95265.66
2019-01-28T05:57:47.252Z,95264.89
2019-01-28T06:00:19.167Z,95265.19
2019-01-28T06:02:48.531Z,95264.23
2019-01-28T06:05:18.277Z,95261.32
2019-01-28T06:07:47.719Z,95262.14
2019-01-28T06:10:17.252Z,95269.60
2019-01-28T06:12:46.765Z,95264.00
2019-01-28T06:15:16.884Z,95260.44
2019-01-28T06:17:48.350Z,95255.03
2019-01-28T06:20:19.385Z,95254.70
2019-01-28T06:22:48.839Z,95258.55
2019-01-28T06:25:18.308Z,95252.42
2019-01-28T06:27:47.804Z,95251.17
2019-01-28T06:30:22.723Z,95254.63
2019-01-28T06:32:52.185Z,95255.23
2019-01-28T06:35:21.682Z,95257.20
2019-01-28T06:37:51.196Z,95265.14
2019-01-28T06:40:25.922Z,95259.99
2019-01-28T06:42:55.440Z,95254.47
2019-01-28T06:45:24.987Z,95256.83
2019-01-28T06:47:54.445Z,95258.13
2019-01-28T06:50:24.003Z,95259.11
2019-01-28T06:52:53.563Z,95257.73
2019-01-28T06:55:23.012Z,95261.25
2019-01-28T06:57:52.461Z,95251.20
2019-01-28T07:00:24.442Z,95257.68
2019-01-28T07:02:53.870Z,95260.55
2019-01-28T07:05:23.360Z,95254.69
2019-01-28T07:07:52.738Z,95258.80
2019-01-28T07:10:22.494Z,95260.44
2019-01-28T07:12:51.973Z,95254.28
2019-01-28T07:15:21.854Z,95269.25
2019-01-28T07:17:54.936Z,95256.48
2019-01-28T07:20:24.943Z,95251.95
2019-01-28T07:22:54.376Z,95258.45
2019-01-28T07:25:24.041Z,95257.09
2019-01-28T07:27:53.498Z,95256.45
2019-01-28T07:30:25.832Z,95248.83
2019-01-28T07:32:55.186Z,95251.42
2019-01-28T07:35:24.730Z,95252.84
2019-01-28T07:37:54.180Z,95252.91
2019-01-28T07:40:23.766Z,95256.94
2019-01-28T07:42:53.247Z,95258.47
2019-01-28T07:45:30.595Z,95257.84
2019-01-28T07:48:03.070Z,95257.58
2019-01-28T07:50:31.102Z,95259.98
2019-01-28T07:53:00.600Z,95260.84
2019-01-28T07:55:29.968Z,95262.53
2019-01-28T07:57:59.377Z,95266.75
2019-01-28T08:00:29.554Z,95266.14
2019-01-28T08:02:59.076Z,95270.08
2019-01-28T08:05:28.568Z,95258.50
2019-01-28T08:07:58.047Z,95268.30
2019-01-28T08:10:27.399Z,95270.50
2019-01-28T08:12:58.477Z,95263.47
2019-01-28T08:15:28.302Z,95268.64
2019-01-28T08:17:57.682Z,95262.27
2019-01-28T08:20:27.200Z,95258.05
2019-01-28T08:22:56.669Z,95259.22
2019-01-28T08:25:26.279Z,95254.70
2019-01-28T08:27:55.715Z,95258.95
2019-01-28T08:30:30.101Z,95255.81
2019-01-28T08:32:59.694Z,95256.03
2019-01-28T08:35:30.578Z,95261.02
2019-01-28T08:38:00.091Z,95261.58
2019-01-28T08:40:29.547Z,95267.89
2019-01-28T08:42:59.029Z,95264.73
2019-01-28T08:45:28.481Z,95271.30
2019-01-28T08:47:57.909Z,95261.13
2019-01-28T08:50:27.449Z,95266.58
2019-01-28T08:52:56.875Z,95264.18
2019-01-28T08:55:26.666Z,95270.77
2019-01-28T08:57:56.112Z,95270.85
2019-01-28T09:00:39.379Z,95276.75
2019-01-28T09:03:08.856Z,95273.22
2019-01-28T09:05:38.267Z,95275.77
2019-01-28T09:08:08.698Z,95281.55
2019-01-28T09:10:38.299Z,95281.92
2019-01-28T09:13:08.350Z,95284.17
2019-01-28T09:15:38.199Z,95274.54
2019-01-28T09:18:09.366Z,95269.20
2019-01-28T09:20:38.862Z,95265.14
2019-01-28T09:23:08.392Z,95265.88
2019-01-28T09:25:37.991Z,95254.63
2019-01-28T09:28:07.536Z,95256.30
2019-01-28T09:30:37.162Z,95251.85
2019-01-28T09:33:06.650Z,95246.36
2019-01-28T09:35:36.230Z,95248.52
2019-01-28T09:38:05.911Z,95256.38
2019-01-28T09:40:35.657Z,95252.83
2019-01-28T09:43:05.622Z,95254.25
2019-01-28T09:45:37.422Z,95264.41
2019-01-28T09:48:07.523Z,95261.59
2019-01-28T09:50:36.997Z,95259.43
2019-01-28T09:53:06.542Z,95259.19
2019-01-28T09:55:35.998Z,95262.36
2019-01-28T09:58:05.983Z,95259.30
2019-01-28T10:00:41.119Z,95262.38
2019-01-28T10:03:10.539Z,95259.38
2019-01-28T10:05:39.945Z,95256.31
2019-01-28T10:08:09.717Z,95259.56
2019-01-28T10:10:39.063Z,95250.59
2019-01-28T10:13:08.647Z,95261.90
2019-01-28T10:15:38.074Z,95259.64
2019-01-28T10:18:07.777Z,95253.41
2019-01-28T10:20:44.653Z,95246.88
2019-01-28T10:23:13.858Z,95252.44
2019-01-28T10:25:43.363Z,95256.08
2019-01-28T10:28:12.698Z,95260.71
2019-01-28T10:30:42.809Z,95266.09
2019-01-28T10:33:12.537Z,95261.11
2019-01-28T10:35:43.683Z,95267.91
2019-01-28T10:38:13.190Z,95263.73
2019-01-28T10:40:42.836Z,95258.70
2019-01-28T10:43:12.372Z,95257.83
2019-01-28T10:45:41.818Z,95252.10
2019-01-28T10:48:12.011Z,95254.42
2019-01-28T10:50:42.652Z,95257.52
2019-01-28T10:53:12.333Z,95257.66
2019-01-28T10:55:41.756Z,95250.86
2019-01-28T10:58:11.156Z,95250.72
2019-01-28T11:00:46.276Z,95257.38
2019-01-28T11:03:17.862Z,95246.88
2019-01-28T11:05:47.344Z,95244.13
2019-01-28T11:08:16.765Z,95253.81
2019-01-28T11:10:46.215Z,95254.63
2019-01-28T11:13:15.675Z,95238.88
2019-01-28T11:15:45.186Z,95248.25
2019-01-28T11:18:26.078Z,95243.59
2019-01-28T11:20:55.489Z,95243.44
2019-01-28T11:23:25.030Z,95248.12
2019-01-28T11:25:54.503Z,95255.73
2019-01-28T11:28:23.921Z,95249.58
2019-01-28T11:30:58.427Z,95246.59
2019-01-28T11:33:27.867Z,95247.70
2019-01-28T11:36:04.768Z,95228.91
2019-01-28T11:38:28.670Z,95239.27
2019-01-28T11:40:58.121Z,95235.22
2019-01-28T11:43:27.598Z,95245.41
2019-01-28T11:46:05.005Z,95232.73
2019-01-28T11:48:34.440Z,95236.83
2019-01-28T11:51:04.133Z,95240.57
2019-01-28T11:53:38.706Z,95240.52
2019-01-28T11:56:08.282Z,95242.06
2019-01-28T11:58:37.632Z,95232.83
2019-01-28T12:01:27.863Z,95238.03
2019-01-28T12:03:57.346Z,95238.85
2019-01-28T12:06:26.886Z,95239.78
2019-01-28T12:08:56.425Z,95239.24
2019-01-28T12:11:25.886Z,95246.48
2019-01-28T12:13:55.367Z,95244.58
2019-01-28T12:16:24.717Z,95246.73
2019-01-28T12:18:54.173Z,95245.23
2019-01-28T12:21:23.592Z,95250.64
2019-01-28T12:23:53.163Z,95255.64
2019-01-28T12:26:23.028Z,95258.02
2019-01-28T12:28:52.438Z,95258.52
2019-01-28T12:31:21.827Z,95258.84
2019-01-28T12:33:51.208Z,95259.50
2019-01-28T12:36:20.608Z,95257.16
2019-01-28T12:38:50.236Z,95252.83
2019-01-28T12:41:19.660Z,95251.31
2019-01-28T12:43:49.167Z,95260.17
2019-01-28T12:46:18.599Z,95248.94
2019-01-28T12:48:48.045Z,95249.69
2019-01-28T12:51:17.471Z,95242.70
2019-01-28T12:53:46.892Z,95248.88
2019-01-28T12:56:16.220Z,95246.27
2019-01-28T12:58:45.584Z,95245.55
2019-01-28T13:01:15.064Z,95250.90
2019-01-28T13:03:44.540Z,95254.89
2019-01-28T13:06:14.018Z,95249.50
2019-01-28T13:08:43.379Z,95251.41
2019-01-28T13:11:12.758Z,95253.24
2019-01-28T13:13:42.274Z,95252.62
2019-01-28T13:16:11.644Z,95255.73
2019-01-28T13:18:41.015Z,95260.19
2019-01-28T13:21:10.391Z,95259.22
2019-01-28T13:23:39.826Z,95259.06
2019-01-28T13:26:09.349Z,95264.92
2019-01-28T13:28:38.783Z,95268.98
2019-01-28T13:31:08.250Z,95271.84
2019-01-28T13:33:37.866Z,95264.23
2019-01-28T13:36:09.571Z,95271.56
2019-01-28T13:38:38.757Z,95274.44
2019-01-28T13:41:08.185Z,95278.62
2019-01-28T13:43:37.625Z,95287.62
2019-01-28T13:46:07.126Z,95291.42
2019-01-28T13:48:36.572Z,95292.20
2019-01-28T13:51:06.541Z,95295.79
2019-01-28T13:53:36.366Z,95295.70
2019-01-28T13:56:05.852Z,95286.59
2019-01-28T13:58:35.289Z,95279.34
2019-01-28T14:01:05.208Z,95276.30
2019-01-28T14:03:34.608Z,95268.20
2019-01-28T14:06:04.151Z,95284.39
2019-01-28T14:08:33.530Z,95277.44
2019-01-28T14:11:02.899Z,95273.27
2019-01-28T14:13:32.297Z,95279.51
2019-01-28T14:16:01.999Z,95290.50
2019-01-28T14:18:31.399Z,95289.50
2019-01-28T14:21:03.384Z,95291.33
2019-01-28T14:23:32.810Z,95284.53
2019-01-28T14:26:02.377Z,95291.29
2019-01-28T14:28:31.831Z,95287.81
2019-01-28T14:31:01.286Z,95292.98
2019-01-28T14:33:30.705Z,95281.49
2019-01-28T14:36:00.175Z,95290.59
2019-01-28T14:38:29.574Z,95300.46
2019-01-28T14:40:58.983Z,95303.12
2019-01-28T14:43:28.391Z,95314.23
2019-01-28T14:45:57.837Z,95322.53
2019-01-28T14:48:27.289Z,95315.77
2019-01-28T14:50:56.721Z,95323.95
2019-01-28T14:53:27.174Z,95327.11
2019-01-28T14:55:56.601Z,95330.30
2019-01-28T14:58:25.962Z,95322.18
2019-01-28T15:00:55.501Z,95317.28
2019-01-28T15:03:24.932Z,95333.97
2019-01-28T15:05:54.407Z,95325.92
2019-01-28T15:08:23.953Z,95332.38
2019-01-28T15:10:53.492Z,95339.59
2019-01-28T15:13:22.791Z,95335.53
2019-01-28T15:15:52.281Z,95335.83
2019-01-28T15:18:21.795Z,95332.98
2019-01-28T15:20:51.185Z,95340.85
2019-01-28T15:23:20.658Z,95346.36
2019-01-28T15:25:50.087Z,95347.38
2019-01-28T15:28:19.507Z,95344.42
2019-01-28T15:30:49.107Z,95350.27
2019-01-28T15:33:18.540Z,95344.81
2019-01-28T15:35:47.874Z,95353.63
2019-01-28T15:38:17.322Z,95354.07
2019-01-28T15:40:46.845Z,95352.39
2019-01-28T15:43:16.347Z,95356.38
2019-01-28T15:45:45.822Z,95360.59
2019-01-28T15:48:15.388Z,95362.89
2019-01-28T15:50:44.849Z,95363.27
2019-01-28T15:53:14.309Z,95367.41
2019-01-28T15:55:43.757Z,95367.55
2019-01-28T15:58:13.755Z,95354.29
2019-01-28T16:00:45.155Z,95360.69
2019-01-28T16:03:15.071Z,95367.31
2019-01-28T16:05:44.438Z,95369.45
2019-01-28T16:08:13.917Z,95368.88
2019-01-28T16:10:43.355Z,95371.28
2019-01-28T16:13:12.817Z,95385.42
2019-01-28T16:15:44.419Z,95387.33
2019-01-28T16:18:16.365Z,95391.39
2019-01-28T16:20:45.841Z,95382.63
2019-01-28T16:23:15.455Z,95380.81
2019-01-28T16:25:44.925Z,95394.95
2019-01-28T16:28:14.378Z,95390.16
2019-01-28T16:30:45.056Z,95400.42
2019-01-28T16:33:14.496Z,95388.88
2019-01-28T16:35:43.936Z,95404.19
2019-01-28T16:38:15.979Z,95402.52
2019-01-28T16:40:45.509Z,95397.37
2019-01-28T16:43:15.082Z,95402.90
2019-01-28T16:45:44.501Z,95412.48
2019-01-28T16:48:13.982Z,95414.05
2019-01-28T16:50:43.407Z,95415.64
2019-01-28T16:53:12.921Z,95428.83
2019-01-28T16:55:42.438Z,95426.20
2019-01-28T16:58:11.827Z,95423.81
2019-01-28T17:00:42.456Z,95434.27
2019-01-28T17:03:12.998Z,95434.27
2019-01-28T17:05:42.637Z,95437.88
2019-01-28T17:08:12.074Z,95433.89
2019-01-28T17:10:41.565Z,95427.18
2019-01-28T17:13:11.005Z,95430.26
2019-01-28T17:15:40.393Z,95428.61
2019-01-28T17:18:09.782Z,95439.70
2019-01-28T17:20:39.262Z,95438.34
2019-01-28T17:23:08.943Z,95443.77
2019-01-28T17:25:48.530Z,95439.34
2019-01-28T17:28:18.194Z,95447.33
2019-01-28T17:30:51.169Z,95451.09
2019-01-28T17:33:20.525Z,95444.13
2019-01-28T17:35:49.911Z,95449.91
2019-01-28T17:38:19.343Z,95449.78
2019-01-28T17:40:48.846Z,95456.41
2019-01-28T17:43:18.615Z,95466.70
2019-01-28T17:45:48.190Z,95459.73
2019-01-28T17:48:17.642Z,95460.07
2019-01-28T17:50:47.081Z,95465.42
2019-01-28T17:53:16.523Z,95463.36
2019-01-28T17:55:45.955Z,95466.14
2019-01-28T17:58:15.376Z,95466.35
2019-01-28T18:00:56.261Z,95474.34
2019-01-28T18:03:25.674Z,95476.55
2019-01-28T18:05:55.085Z,95479.50
2019-01-28T18:08:24.518Z,95483.66
2019-01-28T18:10:54.047Z,95486.05
2019-01-28T18:13:23.662Z,95490.31
2019-01-28T18:15:53.001Z,95487.44
2019-01-28T18:18:22.500Z,95493.34
2019-01-28T18:20:52.958Z,95494.47
2019-01-28T18:23:28.506Z,95489.42
2019-01-28T18:25:57.950Z,95501.48
2019-01-28T18:28:27.372Z,95495.61
2019-01-28T18:30:56.758Z,95498.53
2019-01-28T18:33:26.520Z,95495.39
2019-01-28T18:35:55.883Z,95497.66
2019-01-28T18:38:25.251Z,95508.09
2019-01-28T18:40:54.637Z,95509.30
2019-01-28T18:43:24.117Z,95508.36
2019-01-28T18:45:53.575Z,95514.44
2019-01-28T18:48:23.003Z,95512.91
2019-01-28T18:50:59.410Z,95514.72
2019-01-28T18:53:23.570Z,95525.91
2019-01-28T18:55:52.943Z,95518.83
2019-01-28T18:58:22.325Z,95523.55
2019-01-28T19:00:51.822Z,95536.66
2019-01-28T19:03:21.238Z,95531.33
2019-01-28T19:05:57.528Z,95537.71
2019-01-28T19:08:48.782Z,95546.81
2019-01-28T19:11:31.258Z,95544.56
2019-01-28T19:14:11.462Z,95548.80
2019-01-28T19:16:57.715Z,95556.96
2019-01-28T19:19:34.589Z,95554.38
2019-01-28T19:22:05.146Z,95564.14
2019-01-28T19:24:35.287Z,95564.84
2019-01-28T19:27:04.829Z,95572.91
2019-01-28T19:29:34.236Z,95570.05
2019-01-28T19:32:03.673Z,95573.98
2019-01-28T19:34:34.780Z,95583.16
2019-01-28T19:37:04.339Z,95580.55
2019-01-28T19:39:33.867Z,95579.04
2019-01-28T19:42:03.318Z,95589.88
2019-01-28T19:44:32.703Z,95592.35
2019-01-28T19:47:02.176Z,95597.02
2019-01-28T19:49:31.504Z,95602.42
2019-01-28T19:52:00.935Z,95601.56
2019-01-28T19:54:30.314Z,95610.68
2019-01-28T19:56:59.678Z,95607.69
2019-01-28T19:59:29.038Z,95619.13
2019-01-28T20:01:58.504Z,95616.70
2019-01-28T20:04:27.867Z,95621.03
2019-01-28T20:06:57.346Z,95625.87
2019-01-28T20:09:26.975Z,95633.70
2019-01-28T20:11:56.444Z,95632.66
2019-01-28T20:14:25.873Z,95641.48
2019-01-28T20:16:55.264Z,95640.20
2019-01-28T20:19:24.661Z,95646.84
2019-01-28T20:21:54.057Z,95653.55
2019-01-28T20:24:23.412Z,95650.45
2019-01-28T20:26:52.897Z,95658.77
2019-01-28T20:29:22.323Z,95658.11
2019-01-28T20:31:51.681Z,95663.78
2019-01-28T20:34:21.078Z,95665.19
2019-01-28T20:36:50.470Z,95677.03
2019-01-28T20:39:19.812Z,95668.61
2019-01-28T20:41:49.180Z,95674.19
2019-01-28T20:44:18.523Z,95685.89
2019-01-28T20:46:48.606Z,95695.79
2019-01-28T20:49:18.097Z,95691.95
2019-01-28T20:51:47.433Z,95702.14
2019-01-28T20:54:16.826Z,95711.64
2019-01-28T20:56:46.426Z,95719.67
2019-01-28T20:59:15.800Z,95726.24
2019-01-28T21:01:45.244Z,95731.09
2019-01-28T21:04:14.584Z,95735.33
2019-01-28T21:06:44.045Z,95727.65
2019-01-28T21:09:13.482Z,95734.47
2019-01-28T21:11:42.841Z,95740.28
2019-01-28T21:14:12.218Z,95743.73
2019-01-28T21:16:41.646Z,95744.65
2019-01-28T21:19:11.037Z,95752.83
2019-01-28T21:21:41.998Z,95756.34
2019-01-28T21:24:11.775Z,95763.28
2019-01-28T21:26:41.148Z,95762.83
2019-01-28T21:29:10.508Z,95765.09
2019-01-28T21:31:39.977Z,95775.13
2019-01-28T21:34:09.322Z,95786.99
2019-01-28T21:36:46.809Z,95788.36
2019-01-28T21:39:16.602Z,95792.20
2019-01-28T21:41:45.981Z,95794.27
2019-01-28T21:44:15.332Z,95795.58
2019-01-28T21:46:44.697Z,95800.25
2019-01-28T21:49:14.058Z,95794.80
2019-01-28T21:51:50.508Z,95802.52
2019-01-28T21:54:14.555Z,95797.92
2019-01-28T21:56:43.988Z,95811.67
2019-01-28T21:59:13.581Z,95818.45
2019-01-28T22:01:42.984Z,95801.87
2019-01-28T22:04:12.395Z,95810.27
2019-01-28T22:06:41.841Z,95808.25
2019-01-28T22:09:11.428Z,95807.81
2019-01-28T22:11:40.825Z,95813.49
2019-01-28T22:14:10.306Z,95817.84
2019-01-28T22:16:39.722Z,95826.83
2019-01-28T22:19:09.074Z,95814.32
2019-01-28T22:21:38.500Z,95833.75
2019-01-28T22:24:07.888Z,95840.56
2019-01-28T22:26:37.306Z,95837.55
2019-01-28T22:29:06.724Z,95846.34
2019-01-28T22:31:36.163Z,95849.09
2019-01-28T22:34:05.733Z,95849.66
2019-01-28T22:36:35.162Z,95863.99
2019-01-28T22:39:07.627Z,95865.18
2019-01-28T22:41:37.005Z,95882.31
2019-01-28T22:44:06.436Z,95880.56
2019-01-28T22:46:35.811Z,95883.92
2019-01-28T22:49:05.316Z,95891.85
2019-01-28T22:51:34.693Z,95893.19
2019-01-28T22:54:04.349Z,95887.45
2019-01-28T22:56:33.729Z,95896.13
2019-01-28T22:59:03.162Z,95886.11
2019-01-28T23:01:35.511Z,95905.09
2019-01-28T23:04:05.857Z,95907.20
2019-01-28T23:06:35.230Z,95911.66
2019-01-28T23:09:09.654Z,95907.18
2019-01-28T23:11:39.070Z,95917.98
2019-01-28T23:14:08.619Z,95913.41
2019-01-28T23:16:38.049Z,95920.92
2019-01-28T23:19:07.482Z,95923.29
2019-01-28T23:21:36.905Z,95924.28
2019-01-28T23:24:06.411Z,95928.16
2019-01-28T23:26:35.869Z,95924.89
2019-01-28T23:29:06.088Z,95930.75
2019-01-28T23:31:35.533Z,95926.09
2019-01-28T23:34:05.358Z,95934.27
2019-01-28T23:36:34.743Z,95938.73
2019-01-28T23:39:05.127Z,95932.83
2019-01-28T23:41:34.477Z,95937.47
2019-01-28T23:44:03.958Z,95937.20
2019-01-28T23:46:33.382Z,95943.58
2019-01-28T23:49:02.823Z,95941.10
2019-01-28T23:51:32.191Z,95947.91
2019-01-28T23:54:01.571Z,95951.22
2019-01-28T23:56:30.930Z,95946.48
2019-01-28T23:59:00.350Z,95957.34
